createdAt,value
2023-03-17T00:00:58.791Z,954.00
2023-03-17T00:01:59.824Z,954.00
2023-03-17T00:02:59.884Z,965.00
2023-03-17T00:04:00.005Z,975.00
2023-03-17T00:04:58.986Z,967.00
2023-03-17T00:06:00.050Z,955.00
2023-03-17T00:07:00.458Z,974.00
2023-03-17T00:08:00.163Z,964.00
2023-03-17T00:09:00.218Z,975.00
2023-03-17T00:10:00.277Z,965.00
2023-03-17T00:11:00.346Z,973.00
2023-03-17T00:12:00.401Z,957.00
2023-03-17T00:13:00.474Z,972.00
2023-03-17T00:14:00.508Z,959.00
2023-03-17T00:14:59.557Z,965.00
2023-03-17T00:16:00.649Z,957.00
2023-03-17T00:17:00.691Z,964.00
2023-03-17T00:17:59.730Z,964.00
2023-03-17T00:19:00.810Z,951.00
2023-03-17T00:20:00.877Z,957.00
2023-03-17T00:21:00.935Z,962.00
2023-03-17T00:22:01.147Z,943.00
2023-03-17T00:23:01.052Z,960.00
2023-03-17T00:24:01.111Z,947.00
2023-03-17T00:25:01.216Z,946.00
2023-03-17T00:26:01.245Z,954.00
2023-03-17T00:27:01.287Z,947.00
2023-03-17T00:28:01.369Z,958.00
2023-03-17T00:29:01.440Z,944.00
2023-03-17T00:30:00.492Z,960.00
2023-03-17T00:31:00.553Z,950.00
2023-03-17T00:32:00.599Z,938.00
2023-03-17T00:33:00.799Z,955.00
2023-03-17T00:34:01.712Z,956.00
2023-03-17T00:35:01.764Z,941.00
2023-03-17T00:36:01.903Z,957.00
2023-03-17T00:37:01.885Z,942.00
2023-03-17T00:38:01.933Z,944.00
2023-03-17T00:39:02.006Z,936.00
2023-03-17T00:40:02.058Z,961.00
2023-03-17T00:41:02.119Z,941.00
2023-03-17T00:42:01.181Z,953.00
2023-03-17T00:43:02.226Z,953.00
2023-03-17T00:44:02.281Z,941.00
2023-03-17T00:45:02.376Z,956.00
2023-03-17T00:46:02.406Z,946.00
2023-03-17T00:47:01.592Z,931.00
2023-03-17T00:48:02.540Z,945.00
2023-03-17T00:49:02.608Z,956.00
2023-03-17T00:50:01.654Z,946.00
2023-03-17T00:51:02.740Z,948.00
2023-03-17T00:52:01.805Z,952.00
2023-03-17T00:53:02.851Z,939.00
2023-03-17T00:54:01.938Z,931.00
2023-03-17T00:55:01.980Z,931.00
2023-03-17T00:56:03.050Z,928.00
2023-03-17T00:57:03.117Z,936.00
2023-03-17T00:58:02.185Z,939.00
2023-03-17T00:59:02.245Z,952.00
2023-03-17T01:00:03.344Z,925.00
2023-03-17T01:01:03.496Z,927.00
2023-03-17T01:02:03.478Z,932.00
2023-03-17T01:03:02.488Z,928.00
2023-03-17T01:04:03.560Z,936.00
2023-03-17T01:05:06.577Z,929.00
2023-03-17T01:06:03.609Z,929.00
2023-03-17T01:07:03.605Z,931.00
2023-03-17T01:08:02.596Z,934.00
2023-03-17T01:09:03.592Z,930.00
2023-03-17T01:10:02.575Z,944.00
2023-03-17T01:11:03.592Z,939.00
2023-03-17T01:12:03.566Z,929.00
2023-03-17T01:13:03.552Z,937.00
2023-03-17T01:14:03.556Z,940.00
2023-03-17T01:15:02.561Z,917.00
2023-03-17T01:16:03.579Z,933.00
2023-03-17T01:17:03.566Z,937.00
2023-03-17T01:18:03.536Z,941.00
2023-03-17T01:19:03.515Z,941.00
2023-03-17T01:20:03.509Z,929.00
2023-03-17T01:21:03.514Z,928.00
2023-03-17T01:22:03.501Z,930.00
2023-03-17T01:23:03.497Z,909.00
2023-03-17T01:24:03.497Z,919.00
2023-03-17T01:25:03.565Z,922.00
2023-03-17T01:26:03.569Z,920.00
2023-03-17T01:27:02.601Z,931.00
2023-03-17T01:28:03.606Z,930.00
2023-03-17T01:29:02.618Z,927.00
2023-03-17T01:30:03.653Z,926.00
2023-03-17T01:31:03.684Z,936.00
2023-03-17T01:32:03.710Z,929.00
2023-03-17T01:33:03.781Z,925.00
2023-03-17T01:34:03.775Z,929.00
2023-03-17T01:35:02.836Z,923.00
2023-03-17T01:36:03.970Z,924.00
2023-03-17T01:37:03.960Z,915.00
2023-03-17T01:38:04.017Z,931.00
2023-03-17T01:39:03.084Z,916.00
2023-03-17T01:40:03.151Z,919.00
2023-03-17T01:41:03.209Z,921.00
2023-03-17T01:42:04.276Z,929.00
2023-03-17T01:43:04.336Z,931.00
2023-03-17T01:44:04.384Z,917.00
2023-03-17T01:45:04.443Z,932.00
2023-03-17T01:46:03.546Z,919.00
2023-03-17T01:47:04.528Z,927.00
2023-03-17T01:48:04.554Z,924.00
2023-03-17T01:49:04.614Z,901.00
2023-03-17T01:50:03.606Z,934.00
2023-03-17T01:51:03.627Z,913.00
2023-03-17T01:52:03.656Z,919.00
2023-03-17T01:53:03.672Z,923.00
2023-03-17T01:54:04.675Z,927.00
2023-03-17T01:55:03.693Z,936.00
2023-03-17T01:56:04.717Z,921.00
2023-03-17T01:57:04.737Z,916.00
2023-03-17T01:58:04.757Z,911.00
2023-03-17T01:59:04.786Z,923.00
2023-03-17T02:00:04.807Z,906.00
2023-03-17T02:01:04.921Z,918.00
2023-03-17T02:02:04.935Z,906.00
2023-03-17T02:03:04.964Z,913.00
2023-03-17T02:04:05.110Z,908.00
2023-03-17T02:05:04.109Z,918.00
2023-03-17T02:06:05.122Z,902.00
2023-03-17T02:07:04.123Z,893.00
2023-03-17T02:08:05.142Z,895.00
2023-03-17T02:09:05.152Z,898.00
2023-03-17T02:10:05.201Z,896.00
2023-03-17T02:11:05.330Z,902.00
2023-03-17T02:12:05.152Z,907.00
2023-03-17T02:13:04.275Z,896.00
2023-03-17T02:14:04.229Z,884.00
2023-03-17T02:15:05.232Z,893.00
2023-03-17T02:16:05.264Z,903.00
2023-03-17T02:17:05.272Z,919.00
2023-03-17T02:18:05.303Z,901.00
2023-03-17T02:19:05.287Z,904.00
2023-03-17T02:20:05.303Z,912.00
2023-03-17T02:21:05.381Z,883.00
2023-03-17T02:22:05.355Z,900.00
2023-03-17T02:23:05.375Z,908.00
2023-03-17T02:24:05.413Z,893.00
2023-03-17T02:25:05.479Z,878.00
2023-03-17T02:26:05.486Z,910.00
2023-03-17T02:27:05.471Z,889.00
2023-03-17T02:28:05.479Z,898.00
2023-03-17T02:29:05.486Z,894.00
2023-03-17T02:30:04.492Z,889.00
2023-03-17T02:31:05.607Z,893.00
2023-03-17T02:32:05.479Z,889.00
2023-03-17T02:33:05.554Z,891.00
2023-03-17T02:34:05.474Z,888.00
2023-03-17T02:35:05.178Z,883.00
2023-03-17T02:36:04.546Z,896.00
2023-03-17T02:37:05.536Z,897.00
2023-03-17T02:38:04.462Z,911.00
2023-03-17T02:39:05.481Z,886.00
2023-03-17T02:40:04.498Z,884.00
2023-03-17T02:41:05.495Z,898.00
2023-03-17T02:42:05.497Z,887.00
2023-03-17T02:43:05.496Z,904.00
2023-03-17T02:44:05.502Z,888.00
2023-03-17T02:45:05.486Z,899.00
2023-03-17T02:46:05.571Z,885.00
2023-03-17T02:47:05.538Z,887.00
2023-03-17T02:48:05.491Z,880.00
2023-03-17T02:49:05.530Z,893.00
2023-03-17T02:50:05.477Z,899.00
2023-03-17T02:51:05.514Z,889.00
2023-03-17T02:52:04.480Z,888.00
2023-03-17T02:53:04.499Z,885.00
2023-03-17T02:54:05.461Z,899.00
2023-03-17T02:55:04.457Z,869.00
2023-03-17T02:56:05.457Z,878.00
2023-03-17T02:57:05.454Z,896.00
2023-03-17T02:58:04.452Z,885.00
2023-03-17T02:59:05.449Z,879.00
2023-03-17T03:00:05.468Z,892.00
2023-03-17T03:01:05.484Z,885.00
2023-03-17T03:02:05.445Z,895.00
2023-03-17T03:03:05.454Z,892.00
2023-03-17T03:04:05.437Z,890.00
2023-03-17T03:05:04.417Z,879.00
2023-03-17T03:06:05.422Z,897.00
2023-03-17T03:07:05.425Z,875.00
2023-03-17T03:08:05.407Z,875.00
2023-03-17T03:09:05.442Z,883.00
2023-03-17T03:10:05.427Z,866.00
2023-03-17T03:11:05.433Z,885.00
2023-03-17T03:12:05.431Z,897.00
2023-03-17T03:13:05.405Z,888.00
2023-03-17T03:14:05.390Z,892.00
2023-03-17T03:15:05.439Z,888.00
2023-03-17T03:16:04.455Z,889.00
2023-03-17T03:17:05.404Z,884.00
2023-03-17T03:18:05.396Z,878.00
2023-03-17T03:19:04.422Z,878.00
2023-03-17T03:20:05.388Z,879.00
2023-03-17T03:21:04.386Z,897.00
2023-03-17T03:22:04.430Z,882.00
2023-03-17T03:23:05.404Z,886.00
2023-03-17T03:24:04.403Z,890.00
2023-03-17T03:25:05.437Z,894.00
2023-03-17T03:26:04.453Z,894.00
2023-03-17T03:27:04.453Z,888.00
2023-03-17T03:28:05.409Z,887.00
2023-03-17T03:29:05.384Z,881.00
2023-03-17T03:30:05.403Z,871.00
2023-03-17T03:31:05.437Z,880.00
2023-03-17T03:32:05.393Z,890.00
2023-03-17T03:33:04.525Z,891.00
2023-03-17T03:34:05.411Z,898.00
2023-03-17T03:35:05.398Z,878.00
2023-03-17T03:36:05.496Z,878.00
2023-03-17T03:37:05.471Z,885.00
2023-03-17T03:38:04.434Z,888.00
2023-03-17T03:39:04.404Z,890.00
2023-03-17T03:40:05.412Z,893.00
2023-03-17T03:41:04.443Z,892.00
2023-03-17T03:42:04.486Z,878.00
2023-03-17T03:43:16.369Z,874.00
2023-03-17T03:44:05.421Z,875.00
2023-03-17T03:45:05.415Z,882.00
2023-03-17T03:46:04.520Z,876.00
2023-03-17T03:47:05.416Z,885.00
2023-03-17T03:48:05.404Z,895.00
2023-03-17T03:49:04.414Z,897.00
2023-03-17T03:50:05.382Z,891.00
2023-03-17T03:51:04.403Z,894.00
2023-03-17T03:52:05.366Z,884.00
2023-03-17T03:53:04.381Z,891.00
2023-03-17T03:54:05.352Z,901.00
2023-03-17T03:55:05.350Z,891.00
2023-03-17T03:56:05.359Z,894.00
2023-03-17T03:57:05.357Z,874.00
2023-03-17T03:58:04.334Z,879.00
2023-03-17T03:59:05.340Z,874.00
2023-03-17T04:00:05.311Z,879.00
2023-03-17T04:01:04.319Z,885.00
2023-03-17T04:02:05.302Z,876.00
2023-03-17T04:03:05.443Z,884.00
2023-03-17T04:04:05.281Z,895.00
2023-03-17T04:05:04.363Z,897.00
2023-03-17T04:06:05.264Z,888.00
2023-03-17T04:07:05.284Z,891.00
2023-03-17T04:08:05.265Z,889.00
2023-03-17T04:09:05.241Z,902.00
2023-03-17T04:10:05.245Z,894.00
2023-03-17T04:11:05.255Z,873.00
2023-03-17T04:12:05.229Z,886.00
2023-03-17T04:13:05.255Z,896.00
2023-03-17T04:14:05.215Z,898.00
2023-03-17T04:15:05.210Z,888.00
2023-03-17T04:16:05.267Z,870.00
2023-03-17T04:17:05.233Z,874.00
2023-03-17T04:18:05.183Z,896.00
2023-03-17T04:19:05.215Z,898.00
2023-03-17T04:20:05.187Z,875.00
2023-03-17T04:21:05.167Z,884.00
2023-03-17T04:22:05.168Z,892.00
2023-03-17T04:23:05.169Z,892.00
2023-03-17T04:24:05.180Z,893.00
2023-03-17T04:25:05.130Z,893.00
2023-03-17T04:26:04.201Z,885.00
2023-03-17T04:27:06.209Z,895.00
2023-03-17T04:28:04.118Z,906.00
2023-03-17T04:29:04.134Z,908.00
2023-03-17T04:30:04.098Z,906.00
2023-03-17T04:31:05.088Z,891.00
2023-03-17T04:32:04.087Z,894.00
2023-03-17T04:33:05.152Z,898.00
2023-03-17T04:34:05.078Z,900.00
2023-03-17T04:35:05.072Z,893.00
2023-03-17T04:36:05.237Z,903.00
2023-03-17T04:37:05.052Z,908.00
2023-03-17T04:38:05.073Z,900.00
2023-03-17T04:39:04.114Z,907.00
2023-03-17T04:40:04.019Z,919.00
2023-03-17T04:41:05.027Z,871.00
2023-03-17T04:42:05.003Z,900.00
2023-03-17T04:43:04.997Z,902.00
2023-03-17T04:44:05.044Z,901.00
2023-03-17T04:45:05.070Z,904.00
2023-03-17T04:46:05.041Z,903.00
2023-03-17T04:47:03.982Z,906.00
2023-03-17T04:48:04.977Z,894.00
2023-03-17T04:49:04.976Z,899.00
2023-03-17T04:50:04.960Z,899.00
2023-03-17T04:51:03.951Z,898.00
2023-03-17T04:52:04.948Z,907.00
2023-03-17T04:53:03.954Z,911.00
2023-03-17T04:54:04.937Z,904.00
2023-03-17T04:55:04.949Z,890.00
2023-03-17T04:56:04.975Z,886.00
2023-03-17T04:57:05.007Z,918.00
2023-03-17T04:58:05.028Z,897.00
2023-03-17T04:59:05.083Z,914.00
2023-03-17T05:00:05.086Z,915.00
2023-03-17T05:01:05.235Z,902.00
2023-03-17T05:02:04.247Z,907.00
2023-03-17T05:03:09.027Z,899.00
2023-03-17T05:04:05.188Z,900.00
2023-03-17T05:05:05.165Z,903.00
2023-03-17T05:06:04.165Z,906.00
2023-03-17T05:07:05.158Z,899.00
2023-03-17T05:08:05.150Z,903.00
2023-03-17T05:09:05.172Z,910.00
2023-03-17T05:10:05.134Z,910.00
2023-03-17T05:11:05.139Z,903.00
2023-03-17T05:12:05.115Z,901.00
2023-03-17T05:13:04.121Z,899.00
2023-03-17T05:14:04.113Z,900.00
2023-03-17T05:15:05.186Z,904.00
2023-03-17T05:16:04.097Z,900.00
2023-03-17T05:17:05.224Z,888.00
2023-03-17T05:18:05.163Z,892.00
2023-03-17T05:19:05.082Z,907.00
2023-03-17T05:20:05.062Z,908.00
2023-03-17T05:21:04.056Z,899.00
2023-03-17T05:22:05.051Z,897.00
2023-03-17T05:23:05.061Z,900.00
2023-03-17T05:24:05.044Z,910.00
2023-03-17T05:25:05.042Z,884.00
2023-03-17T05:26:05.027Z,903.00
2023-03-17T05:27:05.015Z,901.00
2023-03-17T05:28:05.011Z,896.00
2023-03-17T05:29:05.004Z,891.00
2023-03-17T05:30:05.007Z,889.00
2023-03-17T05:31:05.091Z,892.00
2023-03-17T05:32:04.997Z,897.00
2023-03-17T05:33:05.173Z,901.00
2023-03-17T05:34:04.126Z,897.00
2023-03-17T05:35:05.134Z,888.00
2023-03-17T05:36:04.312Z,909.00
2023-03-17T05:37:04.302Z,900.00
2023-03-17T05:38:05.302Z,906.00
2023-03-17T05:39:05.379Z,883.00
2023-03-17T05:40:05.425Z,901.00
2023-03-17T05:41:05.496Z,905.00
2023-03-17T05:42:04.544Z,911.00
2023-03-17T05:43:05.627Z,894.00
2023-03-17T05:44:05.678Z,907.00
2023-03-17T05:45:05.744Z,900.00
2023-03-17T05:46:05.863Z,904.00
2023-03-17T05:47:05.951Z,885.00
2023-03-17T05:48:05.935Z,888.00
2023-03-17T05:49:06.056Z,889.00
2023-03-17T05:51:24.097Z,500.00
2023-03-17T05:52:25.091Z,500.00
2023-03-17T05:53:25.079Z,500.00
2023-03-17T05:54:25.115Z,500.00
2023-03-17T05:55:24.071Z,500.00
2023-03-17T05:56:24.071Z,503.00
2023-03-17T05:57:25.044Z,501.00
2023-03-17T05:58:25.037Z,506.00
2023-03-17T05:59:25.042Z,502.00
2023-03-17T06:00:25.034Z,507.00
2023-03-17T06:01:24.026Z,502.00
2023-03-17T06:02:25.027Z,503.00
2023-03-17T06:03:24.069Z,505.00
2023-03-17T06:04:25.038Z,509.00
2023-03-17T06:23:26.294Z,509.00
2023-03-17T06:24:25.393Z,510.00
2023-03-17T06:25:25.471Z,524.00
2023-03-17T06:26:25.511Z,525.00
2023-03-17T06:28:25.612Z,514.00
2023-03-17T06:29:25.690Z,521.00
2023-03-17T06:31:25.798Z,517.00
2023-03-17T06:32:25.896Z,514.00
2023-03-17T06:33:25.847Z,521.00
2023-03-17T06:34:25.922Z,524.00
2023-03-17T06:35:26.047Z,527.00
2023-03-17T06:36:26.055Z,524.00
2023-03-17T06:37:26.095Z,528.00
2023-03-17T06:38:26.122Z,530.00
2023-03-17T06:40:25.237Z,542.00
2023-03-17T06:41:26.298Z,540.00
2023-03-17T06:42:26.301Z,539.00
2023-03-17T06:43:26.346Z,547.00
2023-03-17T06:44:26.359Z,550.00
2023-03-17T06:45:26.699Z,541.00
2023-03-17T06:46:26.458Z,548.00
2023-03-17T06:47:26.448Z,553.00
2023-03-17T06:48:26.491Z,552.00
2023-03-17T06:49:26.573Z,553.00
2023-03-17T06:50:26.825Z,559.00
2023-03-17T06:51:26.973Z,569.00
2023-03-17T06:52:26.655Z,563.00
2023-03-17T06:53:26.816Z,568.00
2023-03-17T06:54:26.998Z,570.00
2023-03-17T06:55:26.839Z,568.00
2023-03-17T06:56:30.233Z,537.00
2023-03-17T06:57:26.647Z,521.00
2023-03-17T06:58:25.826Z,513.00
2023-03-17T06:59:27.484Z,503.00
2023-03-17T07:00:25.644Z,497.00
2023-03-17T07:01:25.710Z,492.00
2023-03-17T07:02:26.863Z,545.00
2023-03-17T07:03:26.768Z,558.00
2023-03-17T07:04:26.723Z,587.00
2023-03-17T07:05:26.653Z,714.00
2023-03-17T07:06:26.663Z,708.00
2023-03-17T07:07:26.043Z,768.00
2023-03-17T07:08:25.799Z,673.00
2023-03-17T07:09:26.885Z,661.00
2023-03-17T07:10:26.824Z,647.00
2023-03-17T07:11:25.876Z,636.00
2023-03-17T07:12:26.901Z,664.00
2023-03-17T07:13:26.839Z,725.00
2023-03-17T07:14:25.986Z,732.00
2023-03-17T07:15:26.944Z,729.00
2023-03-17T07:16:26.996Z,756.00
2023-03-17T07:17:26.970Z,800.00
2023-03-17T07:18:26.031Z,880.00
2023-03-17T07:19:27.098Z,840.00
2023-03-17T07:20:27.140Z,871.00
2023-03-17T07:21:27.193Z,881.00
2023-03-17T07:22:27.176Z,907.00
2023-03-17T07:23:27.208Z,934.00
2023-03-17T07:24:27.557Z,928.00
2023-03-17T07:25:27.336Z,925.00
2023-03-17T07:26:27.293Z,933.00
2023-03-17T07:27:26.320Z,916.00
2023-03-17T07:28:26.321Z,937.00
2023-03-17T07:29:26.297Z,933.00
2023-03-17T07:30:27.264Z,912.00
2023-03-17T07:31:26.421Z,954.00
2023-03-17T07:32:27.394Z,949.00
2023-03-17T07:33:26.264Z,940.00
2023-03-17T07:34:27.349Z,960.00
2023-03-17T07:35:27.313Z,999.00
2023-03-17T07:36:27.268Z,992.00
2023-03-17T07:37:27.294Z,982.00
2023-03-17T07:38:27.328Z,1016.00
2023-03-17T07:39:26.277Z,1025.00
2023-03-17T07:40:27.309Z,1027.00
2023-03-17T07:41:27.376Z,1040.00
2023-03-17T07:42:27.283Z,1050.00
2023-03-17T07:43:27.346Z,1068.00
2023-03-17T07:44:27.350Z,1112.00
2023-03-17T07:45:27.461Z,1106.00
2023-03-17T07:46:27.481Z,1142.00
2023-03-17T07:47:27.478Z,1136.00
2023-03-17T07:48:27.509Z,1146.00
2023-03-17T07:49:40.499Z,1137.00
2023-03-17T07:50:27.595Z,1139.00
2023-03-17T07:51:27.538Z,1146.00
2023-03-17T07:52:26.654Z,1153.00
2023-03-17T07:53:27.579Z,1180.00
2023-03-17T07:54:27.539Z,1204.00
2023-03-17T07:55:27.831Z,1213.00
2023-03-17T07:56:27.588Z,1218.00
2023-03-17T07:57:27.596Z,1232.00
2023-03-17T07:58:27.559Z,1230.00
2023-03-17T07:59:26.494Z,1240.00
2023-03-17T08:00:27.553Z,1214.00
2023-03-17T08:01:26.484Z,1220.00
2023-03-17T08:02:26.549Z,1223.00
2023-03-17T08:03:27.500Z,1209.00
2023-03-17T08:04:27.476Z,1205.00
2023-03-17T08:05:27.455Z,1214.00
2023-03-17T08:06:27.477Z,1203.00
2023-03-17T08:07:27.461Z,1204.00
2023-03-17T08:08:27.477Z,1201.00
2023-03-17T08:09:27.417Z,1212.00
2023-03-17T08:10:27.433Z,1213.00
2023-03-17T08:11:29.370Z,1200.00
2023-03-17T08:12:27.449Z,1209.00
2023-03-17T08:13:27.419Z,1205.00
2023-03-17T08:14:26.389Z,1195.00
2023-03-17T08:15:27.389Z,1214.00
2023-03-17T08:16:27.421Z,1223.00
2023-03-17T08:17:27.435Z,1206.00
2023-03-17T08:18:27.389Z,1203.00
2023-03-17T08:19:27.355Z,1201.00
2023-03-17T08:20:27.383Z,1213.00
2023-03-17T08:21:27.362Z,1188.00
2023-03-17T08:22:27.364Z,1201.00
2023-03-17T08:23:27.385Z,1202.00
2023-03-17T08:24:27.334Z,1202.00
2023-03-17T08:25:27.366Z,1200.00
2023-03-17T08:26:27.334Z,1202.00
2023-03-17T08:27:27.357Z,1213.00
2023-03-17T08:28:27.355Z,1216.00
2023-03-17T08:29:26.325Z,1210.00
2023-03-17T08:30:27.516Z,1221.00
2023-03-17T08:31:27.384Z,1205.00
2023-03-17T08:32:27.410Z,1200.00
2023-03-17T08:33:27.279Z,1199.00
2023-03-17T08:34:26.379Z,1214.00
2023-03-17T08:35:27.353Z,1198.00
2023-03-17T08:36:27.252Z,1192.00
2023-03-17T08:37:27.350Z,1199.00
2023-03-17T08:38:27.266Z,1217.00
2023-03-17T08:39:27.229Z,1210.00
2023-03-17T08:40:26.259Z,1201.00
2023-03-17T08:41:27.241Z,1192.00
2023-03-17T08:42:27.232Z,1198.00
2023-03-17T08:43:27.206Z,1221.00
2023-03-17T08:44:27.229Z,1191.00
2023-03-17T08:45:27.216Z,1205.00
2023-03-17T08:46:27.485Z,1203.00
2023-03-17T08:47:27.218Z,1180.00
2023-03-17T08:48:27.195Z,1181.00
2023-03-17T08:49:27.238Z,1180.00
2023-03-17T08:50:27.541Z,1180.00
2023-03-17T08:51:27.470Z,1145.00
2023-03-17T08:52:27.187Z,1048.00
2023-03-17T08:53:27.172Z,1071.00
2023-03-17T08:54:27.359Z,1108.00
2023-03-17T08:55:26.145Z,1104.00
2023-03-17T08:56:27.243Z,1145.00
2023-03-17T08:57:26.119Z,1288.00
2023-03-17T08:58:27.180Z,1141.00
2023-03-17T08:59:27.177Z,1126.00
2023-03-17T09:00:26.232Z,1134.00
2023-03-17T09:01:27.466Z,1125.00
2023-03-17T09:02:27.358Z,1142.00
2023-03-17T09:03:26.419Z,1107.00
2023-03-17T09:04:27.491Z,1134.00
2023-03-17T09:05:27.514Z,1095.00
2023-03-17T09:06:27.541Z,1050.00
2023-03-17T09:07:26.584Z,1026.00
2023-03-17T09:08:27.659Z,998.00
2023-03-17T09:09:27.729Z,954.00
2023-03-17T09:10:26.810Z,921.00
2023-03-17T09:11:26.809Z,898.00
2023-03-17T09:12:26.971Z,772.00
2023-03-17T09:13:28.033Z,741.00
2023-03-17T09:14:27.862Z,662.00
2023-03-17T09:15:27.891Z,603.00
2023-03-17T09:16:27.081Z,664.00
2023-03-17T09:17:27.874Z,662.00
2023-03-17T09:18:27.883Z,679.00
2023-03-17T09:19:27.870Z,724.00
2023-03-17T09:20:27.939Z,680.00
2023-03-17T09:21:27.900Z,699.00
2023-03-17T09:22:28.027Z,707.00
2023-03-17T09:23:28.193Z,684.00
2023-03-17T09:24:27.880Z,681.00
2023-03-17T09:25:26.906Z,663.00
2023-03-17T09:26:27.908Z,746.00
2023-03-17T09:27:27.909Z,765.00
2023-03-17T09:28:27.897Z,726.00
2023-03-17T09:29:27.948Z,764.00
2023-03-17T09:30:27.942Z,726.00
2023-03-17T09:31:28.086Z,722.00
2023-03-17T09:32:28.028Z,728.00
2023-03-17T09:33:27.051Z,656.00
2023-03-17T09:34:28.001Z,660.00
2023-03-17T09:35:28.086Z,661.00
2023-03-17T09:36:28.179Z,618.00
2023-03-17T09:37:27.146Z,590.00
2023-03-17T09:38:28.485Z,558.00
2023-03-17T09:39:28.243Z,463.00
2023-03-17T09:40:28.785Z,560.00
2023-03-17T09:41:28.446Z,554.00
2023-03-17T09:42:28.374Z,568.00
2023-03-17T09:43:27.473Z,531.00
2023-03-17T09:44:28.503Z,582.00
2023-03-17T09:45:28.523Z,421.00
2023-03-17T09:46:28.594Z,400.00
2023-03-17T09:47:28.571Z,400.00
2023-03-17T09:48:28.656Z,400.00
2023-03-17T09:49:28.660Z,432.00
2023-03-17T09:50:28.961Z,466.00
2023-03-17T09:51:28.764Z,411.00
2023-03-17T09:52:28.689Z,477.00
2023-03-17T09:53:28.710Z,411.00
2023-03-17T09:54:28.771Z,542.00
2023-03-17T09:55:29.114Z,517.00
2023-03-17T09:56:29.380Z,583.00
2023-03-17T09:57:29.115Z,616.00
2023-03-17T09:58:27.949Z,1121.00
2023-03-17T09:59:28.188Z,1332.00
2023-03-17T10:00:29.181Z,1407.00
2023-03-17T10:01:28.127Z,1431.00
2023-03-17T10:02:28.106Z,1488.00
2023-03-17T10:03:29.457Z,1615.00
2023-03-17T10:04:29.357Z,1787.00
2023-03-17T10:05:28.283Z,1863.00
2023-03-17T10:06:29.230Z,2198.00
2023-03-17T10:07:28.272Z,2062.00
2023-03-17T10:08:32.066Z,2301.00
2023-03-17T10:09:29.328Z,2239.00
2023-03-17T10:10:28.787Z,2335.00
2023-03-17T10:11:28.281Z,2258.00
2023-03-17T10:12:28.341Z,2287.00
2023-03-17T10:13:29.239Z,2550.00
2023-03-17T10:14:29.263Z,2384.00
2023-03-17T10:15:29.786Z,2453.00
2023-03-17T10:16:29.270Z,2561.00
2023-03-17T10:17:29.250Z,2449.00
2023-03-17T10:18:29.257Z,2574.00
2023-03-17T10:19:29.307Z,2568.00
2023-03-17T10:20:29.201Z,2348.00
2023-03-17T10:21:29.192Z,2487.00
2023-03-17T10:22:29.191Z,2498.00
2023-03-17T10:23:29.223Z,2352.00
2023-03-17T10:24:29.193Z,2291.00
2023-03-17T10:25:29.786Z,2255.00
2023-03-17T10:26:28.219Z,2208.00
2023-03-17T10:27:29.152Z,2500.00
2023-03-17T10:28:29.150Z,2540.00
2023-03-17T10:29:29.136Z,2599.00
2023-03-17T10:30:28.174Z,2680.00
2023-03-17T10:31:28.175Z,2831.00
2023-03-17T10:32:29.205Z,2549.00
2023-03-17T10:33:29.131Z,2409.00
2023-03-17T10:34:29.139Z,2326.00
2023-03-17T10:35:29.752Z,2314.00
2023-03-17T10:36:29.110Z,2242.00
2023-03-17T10:37:29.159Z,2197.00
2023-03-17T10:38:29.092Z,2200.00
2023-03-17T10:39:32.112Z,2192.00
2023-03-17T10:40:29.478Z,2192.00
2023-03-17T10:41:29.089Z,2154.00
2023-03-17T10:42:29.598Z,2123.00
2023-03-17T10:43:29.061Z,2141.00
2023-03-17T10:44:29.049Z,2111.00
2023-03-17T10:45:29.066Z,1971.00
2023-03-17T10:46:28.471Z,1598.00
2023-03-17T10:47:29.048Z,814.00
2023-03-17T10:48:29.143Z,846.00
2023-03-17T10:49:29.076Z,1033.00
2023-03-17T10:50:29.569Z,961.00
2023-03-17T10:51:28.447Z,1025.00
2023-03-17T10:52:28.011Z,1159.00
2023-03-17T10:53:29.244Z,1391.00
2023-03-17T10:54:29.225Z,1566.00
2023-03-17T10:55:29.015Z,1610.00
2023-03-17T10:56:28.115Z,1626.00
2023-03-17T10:57:29.359Z,1634.00
2023-03-17T10:58:28.133Z,1639.00
2023-03-17T10:59:29.078Z,1640.00
2023-03-17T11:00:28.237Z,1696.00
2023-03-17T11:01:28.981Z,1717.00
2023-03-17T11:02:28.966Z,1679.00
2023-03-17T11:03:29.026Z,1676.00
2023-03-17T11:04:28.990Z,1718.00
2023-03-17T11:05:28.983Z,1740.00
2023-03-17T11:06:27.950Z,1735.00
2023-03-17T11:07:29.159Z,1683.00
2023-03-17T11:08:28.893Z,1739.00
2023-03-17T11:09:28.899Z,1737.00
2023-03-17T11:10:29.329Z,1745.00
2023-03-17T11:11:29.006Z,1723.00
2023-03-17T11:12:28.109Z,1740.00
2023-03-17T11:13:28.184Z,1728.00
2023-03-17T11:14:29.202Z,1761.00
2023-03-17T11:15:28.244Z,1784.00
2023-03-17T11:16:29.366Z,1774.00
2023-03-17T11:17:29.365Z,1792.00
2023-03-17T11:18:30.979Z,1752.00
2023-03-17T11:19:29.356Z,1770.00
2023-03-17T11:20:29.648Z,1770.00
2023-03-17T11:21:29.340Z,1790.00
2023-03-17T11:22:29.374Z,1765.00
2023-03-17T11:23:29.554Z,1779.00
2023-03-17T11:24:31.396Z,1780.00
2023-03-17T11:25:28.317Z,1781.00
2023-03-17T11:26:29.345Z,1781.00
2023-03-17T11:27:29.364Z,1782.00
2023-03-17T11:28:29.464Z,1780.00
2023-03-17T11:29:29.345Z,1769.00
2023-03-17T11:30:29.624Z,1796.00
2023-03-17T11:31:29.291Z,1785.00
2023-03-17T11:32:28.383Z,1769.00
2023-03-17T11:33:29.255Z,1698.00
2023-03-17T11:34:28.266Z,1716.00
2023-03-17T11:35:29.229Z,1737.00
2023-03-17T11:36:29.229Z,1744.00
2023-03-17T11:37:29.279Z,1709.00
2023-03-17T11:38:29.253Z,1686.00
2023-03-17T11:39:29.289Z,1695.00
2023-03-17T11:41:28.435Z,1606.00
2023-03-17T11:42:29.421Z,1591.00
2023-03-17T11:43:29.192Z,1629.00
2023-03-17T11:44:29.180Z,1590.00
2023-03-17T11:45:29.181Z,1610.00
2023-03-17T11:46:28.234Z,1580.00
2023-03-17T11:47:29.921Z,1595.00
2023-03-17T11:48:29.150Z,1584.00
2023-03-17T11:49:29.151Z,1572.00
2023-03-17T11:50:29.576Z,1555.00
2023-03-17T11:51:29.255Z,1561.00
2023-03-17T11:52:29.297Z,1558.00
2023-03-17T11:55:29.426Z,1526.00
2023-03-17T11:56:29.394Z,1513.00
2023-03-17T11:57:29.435Z,1528.00
2023-03-17T11:58:29.403Z,1492.00
2023-03-17T11:59:29.424Z,1484.00
2023-03-17T12:00:29.861Z,1487.00
2023-03-17T12:01:29.444Z,1489.00
2023-03-17T12:02:29.447Z,1471.00
2023-03-17T12:03:29.540Z,1492.00
2023-03-17T12:04:28.447Z,1460.00
2023-03-17T12:05:29.387Z,1454.00
2023-03-17T12:06:29.383Z,1486.00
2023-03-17T12:07:29.382Z,1452.00
2023-03-17T12:08:29.410Z,1434.00
2023-03-17T12:09:29.403Z,1428.00
2023-03-17T12:10:29.778Z,1398.00
2023-03-17T12:11:29.415Z,1396.00
2023-03-17T12:12:29.435Z,1382.00
2023-03-17T12:13:28.384Z,1370.00
2023-03-17T12:14:29.410Z,1409.00
2023-03-17T12:15:29.522Z,1421.00
2023-03-17T12:16:29.463Z,1422.00
2023-03-17T12:17:30.383Z,1377.00
2023-03-17T12:18:29.450Z,1390.00
2023-03-17T12:19:29.472Z,1356.00
2023-03-17T12:20:29.950Z,1346.00
2023-03-17T12:21:29.493Z,1376.00
2023-03-17T12:22:29.515Z,1334.00
2023-03-17T12:23:29.558Z,1297.00
2023-03-17T12:24:29.577Z,1340.00
2023-03-17T12:25:29.558Z,1320.00
2023-03-17T12:26:29.623Z,1312.00
2023-03-17T12:27:28.618Z,1331.00
2023-03-17T12:28:29.615Z,1347.00
2023-03-17T12:29:29.656Z,1334.00
2023-03-17T12:30:30.077Z,1336.00
2023-03-17T12:31:29.747Z,1328.00
2023-03-17T12:32:29.802Z,1245.00
2023-03-17T12:33:29.859Z,1270.00
2023-03-17T12:34:29.731Z,1191.00
2023-03-17T12:35:29.212Z,1298.00
2023-03-17T12:36:28.778Z,1317.00
2023-03-17T12:37:28.937Z,1295.00
2023-03-17T12:38:29.815Z,1271.00
2023-03-17T12:39:29.817Z,1216.00
2023-03-17T12:40:30.092Z,1251.00
2023-03-17T12:41:29.926Z,1313.00
2023-03-17T12:42:28.904Z,1301.00
2023-03-17T12:43:29.958Z,1291.00
2023-03-17T12:44:29.951Z,1287.00
2023-03-17T12:45:30.294Z,1261.00
2023-03-17T12:46:30.259Z,1246.00